createdAt,value
2022-11-06T00:00:00.493Z,52.85
2022-11-06T00:02:27.095Z,52.87
2022-11-06T00:04:53.701Z,52.86
2022-11-06T00:07:20.265Z,52.86
2022-11-06T00:09:46.823Z,52.86
2022-11-06T00:12:13.402Z,52.87
2022-11-06T00:14:40.242Z,52.87
2022-11-06T00:17:06.796Z,52.86
2022-11-06T00:19:33.359Z,52.88
2022-11-06T00:21:59.978Z,52.87
2022-11-06T00:24:26.553Z,52.86
2022-11-06T00:26:54.591Z,52.88
2022-11-06T00:29:21.317Z,52.88
2022-11-06T00:31:49.571Z,52.88
2022-11-06T00:34:16.120Z,52.89
2022-11-06T00:36:42.677Z,52.87
2022-11-06T00:39:09.382Z,52.89
2022-11-06T00:41:36.013Z,52.88
2022-11-06T00:44:02.737Z,52.89
2022-11-06T00:46:29.453Z,52.88
2022-11-06T00:48:56.198Z,52.89
2022-11-06T00:51:30.926Z,52.88
2022-11-06T00:53:59.282Z,52.88
2022-11-06T00:56:26.027Z,52.90
2022-11-06T00:58:52.664Z,52.91
2022-11-06T01:01:27.697Z,52.91
2022-11-06T01:04:01.771Z,52.90
2022-11-06T01:06:32.612Z,52.91
2022-11-06T01:08:59.208Z,52.91
2022-11-06T01:11:37.522Z,52.92
2022-11-06T01:14:14.274Z,52.91
2022-11-06T01:16:40.976Z,52.91
2022-11-06T01:19:07.652Z,52.91
2022-11-06T01:21:37.363Z,52.93
2022-11-06T01:24:11.562Z,52.93
2022-11-06T01:26:45.377Z,52.95
2022-11-06T01:29:20.381Z,52.93
2022-11-06T01:31:49.785Z,52.92
2022-11-06T01:34:16.367Z,52.93
2022-11-06T01:36:42.917Z,52.95
2022-11-06T01:39:11.861Z,52.93
2022-11-06T01:41:40.549Z,52.92
2022-11-06T01:44:41.325Z,52.93
2022-11-06T01:47:40.313Z,52.96
2022-11-06T01:50:09.779Z,52.96
2022-11-06T01:52:36.336Z,52.98
2022-11-06T01:55:11.063Z,52.97
2022-11-06T01:57:37.658Z,52.97
2022-11-06T02:00:05.461Z,52.97
2022-11-06T02:02:32.130Z,52.96
2022-11-06T02:04:58.802Z,52.99
2022-11-06T02:07:25.376Z,52.99
2022-11-06T02:09:51.932Z,52.96
2022-11-06T02:12:44.249Z,53.00
2022-11-06T02:15:13.458Z,53.01
2022-11-06T02:17:39.871Z,53.01
2022-11-06T02:20:34.213Z,53.00
2022-11-06T02:23:04.233Z,53.01
2022-11-06T02:26:13.737Z,53.02
2022-11-06T02:28:44.142Z,53.02
2022-11-06T02:31:12.577Z,53.05
2022-11-06T02:34:02.850Z,53.04
2022-11-06T02:36:31.574Z,53.05
2022-11-06T02:38:59.401Z,53.07
2022-11-06T02:41:28.604Z,53.08
2022-11-06T02:43:56.248Z,53.08
2022-11-06T02:46:28.955Z,53.08
2022-11-06T02:48:59.229Z,53.11
2022-11-06T02:51:27.487Z,53.11
2022-11-06T02:53:54.045Z,53.10
2022-11-06T02:56:22.753Z,53.08
2022-11-06T02:59:03.359Z,53.09
2022-11-06T03:01:32.721Z,53.10
2022-11-06T03:04:03.776Z,53.12
2022-11-06T03:06:34.039Z,53.12
2022-11-06T03:09:13.317Z,53.12
2022-11-06T03:11:39.948Z,53.10
2022-11-06T03:14:19.681Z,53.11
2022-11-06T03:17:00.327Z,53.13
2022-11-06T03:19:48.770Z,53.13
2022-11-06T03:22:34.662Z,53.12
2022-11-06T03:25:10.206Z,53.15
2022-11-06T03:27:46.237Z,53.14
2022-11-06T03:30:16.456Z,53.18
2022-11-06T03:32:57.698Z,53.16
2022-11-06T03:35:35.258Z,53.20
2022-11-06T03:38:29.324Z,53.19
2022-11-06T03:40:59.566Z,53.22
2022-11-06T03:43:28.826Z,53.20
2022-11-06T03:45:55.402Z,53.20
2022-11-06T03:48:25.370Z,53.23
2022-11-06T03:50:56.031Z,53.24
2022-11-06T03:53:27.396Z,53.21
2022-11-06T03:55:55.887Z,53.23
2022-11-06T03:58:24.549Z,53.22
2022-11-06T04:00:51.266Z,53.25
2022-11-06T04:03:35.889Z,53.22
2022-11-06T04:06:22.727Z,53.23
2022-11-06T04:09:07.935Z,53.20
2022-11-06T04:11:53.575Z,53.19
2022-11-06T04:14:20.178Z,53.15
2022-11-06T04:16:48.330Z,53.10
2022-11-06T04:19:17.060Z,53.14
2022-11-06T04:21:57.158Z,53.10
2022-11-06T04:24:46.882Z,53.06
2022-11-06T04:27:32.031Z,53.04
2022-11-06T04:30:04.711Z,53.04
2022-11-06T04:32:33.692Z,53.02
2022-11-06T04:35:11.112Z,53.03
2022-11-06T04:37:41.770Z,53.01
2022-11-06T04:40:12.139Z,53.02
2022-11-06T04:42:42.730Z,53.01
2022-11-06T04:45:30.948Z,53.00
2022-11-06T04:47:57.511Z,53.00
2022-11-06T04:50:24.092Z,53.00
2022-11-06T04:52:50.951Z,52.98
2022-11-06T04:55:18.185Z,53.00
2022-11-06T04:57:44.760Z,53.02
2022-11-06T05:00:13.110Z,52.98
2022-11-06T05:02:39.661Z,52.99
2022-11-06T05:05:06.607Z,52.97
2022-11-06T05:07:33.175Z,52.98
2022-11-06T05:09:59.759Z,52.96
2022-11-06T05:12:26.309Z,52.96
2022-11-06T05:14:52.975Z,52.95
2022-11-06T05:17:19.574Z,52.96
2022-11-06T05:19:46.181Z,52.94
2022-11-06T05:22:31.134Z,52.93
2022-11-06T05:24:57.703Z,52.96
2022-11-06T05:27:24.235Z,52.95
2022-11-06T05:29:50.794Z,52.95
2022-11-06T05:32:17.360Z,52.92
2022-11-06T05:34:46.058Z,52.92
2022-11-06T05:37:12.623Z,52.91
2022-11-06T05:39:41.826Z,52.93
2022-11-06T05:42:08.781Z,52.92
2022-11-06T05:44:35.477Z,52.90
2022-11-06T05:47:02.048Z,52.91
2022-11-06T05:49:28.641Z,52.91
2022-11-06T05:51:55.288Z,52.91
2022-11-06T05:54:22.030Z,52.91
2022-11-06T05:56:48.826Z,52.93
2022-11-06T05:59:15.380Z,52.90
2022-11-06T06:01:42.121Z,52.90
2022-11-06T06:04:08.803Z,52.91
2022-11-06T06:06:35.438Z,52.92
2022-11-06T06:09:02.038Z,52.91
2022-11-06T06:11:28.590Z,52.90
2022-11-06T06:13:55.384Z,52.89
2022-11-06T06:16:22.010Z,52.87
2022-11-06T06:18:50.378Z,52.88
2022-11-06T06:21:17.228Z,52.89
2022-11-06T06:23:43.795Z,52.89
2022-11-06T06:26:10.400Z,52.89
2022-11-06T06:28:37.037Z,52.90
2022-11-06T06:31:04.617Z,52.90
2022-11-06T06:33:31.389Z,52.88
2022-11-06T06:35:58.101Z,52.88
2022-11-06T06:38:25.920Z,52.86
2022-11-06T06:40:53.877Z,52.85
2022-11-06T06:43:20.546Z,52.86
2022-11-06T06:45:47.095Z,52.86
2022-11-06T06:48:13.866Z,52.88
2022-11-06T06:50:40.841Z,52.88
2022-11-06T06:53:07.418Z,52.90
2022-11-06T06:55:34.014Z,52.89
2022-11-06T06:58:00.797Z,52.88
2022-11-06T07:00:28.107Z,52.90
2022-11-06T07:02:54.787Z,52.90
2022-11-06T07:05:21.373Z,52.90
2022-11-06T07:07:47.980Z,52.90
2022-11-06T07:10:14.627Z,52.89
2022-11-06T07:12:41.238Z,52.89
2022-11-06T07:15:08.517Z,52.88
2022-11-06T07:17:35.113Z,52.90
2022-11-06T07:20:01.973Z,52.87
2022-11-06T07:22:35.427Z,52.89
2022-11-06T07:25:04.266Z,52.88
2022-11-06T07:27:30.818Z,52.89
2022-11-06T07:29:57.523Z,52.89
2022-11-06T07:32:24.081Z,52.88
2022-11-06T07:34:50.662Z,52.88
2022-11-06T07:37:19.304Z,52.88
2022-11-06T07:39:45.877Z,52.88
2022-11-06T07:42:12.576Z,52.86
2022-11-06T07:44:39.189Z,52.89
2022-11-06T07:47:05.768Z,52.89
2022-11-06T07:49:32.316Z,52.87
2022-11-06T07:51:58.917Z,52.92
2022-11-06T07:54:25.484Z,52.91
2022-11-06T07:56:52.067Z,52.93
2022-11-06T07:59:18.685Z,52.92
2022-11-06T08:01:45.323Z,52.93
2022-11-06T08:04:12.117Z,52.94
2022-11-06T08:06:38.694Z,52.92
2022-11-06T08:09:07.474Z,52.93
2022-11-06T08:11:34.044Z,52.92
2022-11-06T08:14:01.212Z,52.93
2022-11-06T08:16:27.918Z,52.93
2022-11-06T08:18:54.521Z,52.94
2022-11-06T08:21:21.318Z,52.96
2022-11-06T08:23:47.950Z,52.97
2022-11-06T08:26:14.526Z,52.95
2022-11-06T08:28:41.614Z,52.93
2022-11-06T08:31:08.447Z,52.94
2022-11-06T08:33:35.774Z,52.96
2022-11-06T08:36:06.189Z,52.92
2022-11-06T08:38:32.916Z,52.93
2022-11-06T08:41:04.703Z,52.93
2022-11-06T08:43:31.335Z,52.91
2022-11-06T08:45:59.158Z,52.92
2022-11-06T08:48:25.768Z,52.94
2022-11-06T08:50:52.321Z,52.92
2022-11-06T08:53:19.245Z,52.91
2022-11-06T08:55:45.929Z,52.91
2022-11-06T08:58:14.039Z,52.92
2022-11-06T09:00:40.738Z,52.95
2022-11-06T09:03:11.624Z,52.94
2022-11-06T09:05:42.149Z,52.95
2022-11-06T09:08:08.960Z,52.96
2022-11-06T09:10:35.989Z,52.98
2022-11-06T09:13:04.070Z,52.98
2022-11-06T09:15:30.720Z,53.00
2022-11-06T09:17:57.306Z,53.00
2022-11-06T09:20:24.826Z,53.01
2022-11-06T09:22:51.526Z,53.04
2022-11-06T09:25:18.087Z,53.04
2022-11-06T09:27:58.482Z,53.06
2022-11-06T09:30:26.008Z,53.09
2022-11-06T09:32:54.192Z,53.12
2022-11-06T09:35:21.423Z,53.16
2022-11-06T09:37:48.016Z,53.18
2022-11-06T09:40:22.399Z,53.21
2022-11-06T09:42:57.811Z,53.19
2022-11-06T09:45:25.800Z,53.22
2022-11-06T09:48:15.767Z,53.25
2022-11-06T09:50:48.038Z,53.27
2022-11-06T09:53:19.512Z,53.23
2022-11-06T09:55:46.425Z,53.28
2022-11-06T09:58:24.959Z,53.28
2022-11-06T10:00:52.192Z,53.29
2022-11-06T10:03:38.545Z,53.28
2022-11-06T10:06:05.368Z,53.29
2022-11-06T10:08:31.949Z,53.29
2022-11-06T10:11:18.699Z,53.33
2022-11-06T10:13:59.172Z,53.35
2022-11-06T10:16:53.868Z,53.33
2022-11-06T10:19:29.233Z,53.36
2022-11-06T10:22:07.954Z,53.39
2022-11-06T10:24:50.281Z,53.39
2022-11-06T10:27:18.742Z,53.41
2022-11-06T10:30:14.013Z,53.40
2022-11-06T10:32:53.170Z,53.41
2022-11-06T10:35:20.728Z,53.41
2022-11-06T10:38:12.379Z,53.45
2022-11-06T10:40:39.380Z,53.43
2022-11-06T10:43:21.219Z,53.42
2022-11-06T10:45:50.501Z,53.43
2022-11-06T10:48:43.661Z,53.47
2022-11-06T10:51:34.855Z,53.50
2022-11-06T10:54:16.793Z,53.50
2022-11-06T10:56:53.205Z,53.50
2022-11-06T10:59:19.792Z,53.53
2022-11-06T11:01:46.635Z,53.51
2022-11-06T11:04:13.312Z,53.52
2022-11-06T11:06:40.857Z,53.53
2022-11-06T11:09:33.115Z,53.58
2022-11-06T11:11:59.788Z,53.57
2022-11-06T11:14:31.911Z,53.59
2022-11-06T11:17:00.116Z,53.59
2022-11-06T11:19:38.181Z,53.57
2022-11-06T11:22:11.290Z,53.59
2022-11-06T11:24:37.901Z,53.58
2022-11-06T11:27:07.525Z,53.61
2022-11-06T11:29:45.240Z,53.63
2022-11-06T11:32:14.339Z,53.62
2022-11-06T11:34:50.318Z,53.62
2022-11-06T11:37:30.241Z,53.63
2022-11-06T11:40:16.954Z,53.62
2022-11-06T11:42:43.548Z,53.62
2022-11-06T11:45:09.983Z,53.65
2022-11-06T11:47:37.474Z,53.67
2022-11-06T11:50:33.337Z,53.66
2022-11-06T11:53:20.138Z,53.67
2022-11-06T11:55:48.834Z,53.68
2022-11-06T11:58:19.328Z,53.69
2022-11-06T12:00:59.870Z,53.70
2022-11-06T12:03:34.029Z,53.73
2022-11-06T12:06:10.859Z,53.70
2022-11-06T12:08:38.532Z,53.70
2022-11-06T12:11:05.380Z,53.67
2022-11-06T12:13:31.951Z,53.67
2022-11-06T12:16:05.156Z,53.68
2022-11-06T12:18:34.576Z,53.71
2022-11-06T12:21:00.995Z,53.68
2022-11-06T12:23:31.052Z,53.70
2022-11-06T12:26:11.733Z,53.68
2022-11-06T12:28:38.511Z,53.70
2022-11-06T12:31:12.293Z,53.70
2022-11-06T12:34:05.137Z,53.68
2022-11-06T12:36:26.671Z,53.67
2022-11-06T12:38:55.811Z,53.71
2022-11-06T12:41:24.674Z,53.73
2022-11-06T12:43:51.275Z,53.69
2022-11-06T12:46:39.175Z,53.68
2022-11-06T12:49:16.238Z,53.71
2022-11-06T12:52:09.063Z,53.73
2022-11-06T12:55:04.595Z,53.72
2022-11-06T12:57:37.162Z,53.74
2022-11-06T13:00:19.594Z,53.69
2022-11-06T13:02:57.997Z,53.69
2022-11-06T13:05:53.004Z,53.72
2022-11-06T13:09:03.345Z,53.73
2022-11-06T13:11:52.917Z,53.73
2022-11-06T13:14:25.025Z,53.69
2022-11-06T13:17:01.727Z,53.70
2022-11-06T13:19:35.552Z,53.68
2022-11-06T13:22:12.535Z,53.67
2022-11-06T13:24:47.118Z,53.68
2022-11-06T13:27:23.797Z,53.69
2022-11-06T13:29:50.373Z,53.68
2022-11-06T13:32:18.167Z,53.67
2022-11-06T13:34:46.864Z,53.67
2022-11-06T13:37:16.783Z,53.67
2022-11-06T13:39:48.934Z,53.65
2022-11-06T13:42:21.727Z,53.63
2022-11-06T13:44:48.408Z,53.64
2022-11-06T13:47:36.496Z,53.65
2022-11-06T13:50:27.974Z,53.63
2022-11-06T13:52:58.042Z,53.62
2022-11-06T13:55:36.365Z,53.63
2022-11-06T13:58:40.515Z,53.64
2022-11-06T14:01:24.917Z,53.63
2022-11-06T14:04:10.000Z,53.63
2022-11-06T14:06:38.647Z,53.62
2022-11-06T14:09:06.505Z,53.58
2022-11-06T14:11:40.605Z,53.58
2022-11-06T14:14:13.632Z,53.59
2022-11-06T14:16:40.990Z,53.58
2022-11-06T14:19:14.964Z,53.56
2022-11-06T14:21:51.538Z,53.56
2022-11-06T14:24:34.871Z,53.57
2022-11-06T14:27:03.053Z,53.56
2022-11-06T14:29:29.462Z,53.56
2022-11-06T14:32:14.820Z,53.57
2022-11-06T14:34:42.300Z,53.58
2022-11-06T14:37:17.963Z,53.58
2022-11-06T14:39:56.890Z,53.57
2022-11-06T14:42:27.015Z,53.57
2022-11-06T14:44:57.650Z,53.56
2022-11-06T14:47:40.082Z,53.57
2022-11-06T14:50:28.786Z,53.57
2022-11-06T14:53:17.534Z,53.57
2022-11-06T14:55:49.731Z,53.59
2022-11-06T14:58:31.384Z,53.59
2022-11-06T15:01:09.790Z,53.58
2022-11-06T15:03:53.003Z,53.58
2022-11-06T15:06:34.631Z,53.58
2022-11-06T15:09:01.177Z,53.58
2022-11-06T15:11:30.393Z,53.59
2022-11-06T15:14:03.460Z,53.58
2022-11-06T15:16:43.952Z,53.58
2022-11-06T15:19:13.489Z,53.59
2022-11-06T15:21:44.805Z,53.57
2022-11-06T15:24:24.986Z,53.59
2022-11-06T15:26:57.300Z,53.60
2022-11-06T15:29:28.653Z,53.59
2022-11-06T15:32:00.715Z,53.59
2022-11-06T15:34:37.802Z,53.60
2022-11-06T15:37:12.566Z,53.63
2022-11-06T15:39:41.006Z,53.62
2022-11-06T15:42:14.362Z,53.63
2022-11-06T15:44:42.570Z,53.63
2022-11-06T15:47:20.100Z,53.62
2022-11-06T15:49:46.735Z,53.63
2022-11-06T15:52:19.638Z,53.68
2022-11-06T15:54:48.669Z,53.67
2022-11-06T15:57:18.587Z,53.67
2022-11-06T15:59:45.128Z,53.68
2022-11-06T16:02:19.849Z,53.69
2022-11-06T16:04:46.933Z,53.71
2022-11-06T16:07:13.879Z,53.70
2022-11-06T16:09:41.318Z,53.75
2022-11-06T16:12:11.321Z,53.73
2022-11-06T16:14:41.636Z,53.75
2022-11-06T16:17:15.641Z,53.77
2022-11-06T16:19:44.130Z,53.74
2022-11-06T16:22:16.376Z,53.78
2022-11-06T16:24:52.141Z,53.79
2022-11-06T16:27:18.713Z,53.79
2022-11-06T16:29:52.537Z,53.82
2022-11-06T16:32:21.030Z,53.82
2022-11-06T16:34:48.377Z,53.82
2022-11-06T16:37:17.993Z,53.82
2022-11-06T16:39:52.607Z,53.83
2022-11-06T16:42:22.373Z,53.84
2022-11-06T16:45:08.152Z,53.87
2022-11-06T16:47:34.715Z,53.89
2022-11-06T16:50:02.594Z,53.90
2022-11-06T16:52:33.592Z,53.93
2022-11-06T16:55:17.158Z,53.95
2022-11-06T16:57:48.386Z,53.95
2022-11-06T17:00:20.950Z,53.98
2022-11-06T17:02:49.043Z,53.97
2022-11-06T17:05:21.578Z,53.97
2022-11-06T17:07:48.458Z,54.01
2022-11-06T17:10:41.895Z,53.98
2022-11-06T17:13:18.608Z,54.01
2022-11-06T17:15:47.220Z,54.00
2022-11-06T17:18:23.401Z,54.01
2022-11-06T17:20:55.238Z,54.03
2022-11-06T17:23:22.399Z,54.02
2022-11-06T17:25:49.782Z,54.03
2022-11-06T17:28:16.582Z,54.05
2022-11-06T17:30:43.630Z,54.05
2022-11-06T17:33:10.286Z,54.05
2022-11-06T17:35:36.892Z,54.02
2022-11-06T17:38:07.416Z,54.02
2022-11-06T17:40:34.371Z,54.06
2022-11-06T17:43:00.940Z,54.02
2022-11-06T17:45:27.484Z,54.03
2022-11-06T17:47:54.456Z,54.04
2022-11-06T17:50:21.062Z,54.03
2022-11-06T17:52:47.608Z,54.01
2022-11-06T17:55:14.202Z,54.02
2022-11-06T17:57:40.824Z,54.02
2022-11-06T18:00:10.031Z,54.02
2022-11-06T18:02:59.929Z,54.02
2022-11-06T18:05:23.554Z,54.00
2022-11-06T18:07:50.121Z,54.02
2022-11-06T18:10:16.695Z,54.02
2022-11-06T18:12:43.302Z,54.03
2022-11-06T18:15:10.757Z,53.98
2022-11-06T18:17:37.349Z,53.97
2022-11-06T18:20:05.284Z,53.98
2022-11-06T18:22:32.061Z,53.98
2022-11-06T18:24:58.610Z,53.99
2022-11-06T18:27:25.171Z,53.98
2022-11-06T18:29:51.728Z,53.97
2022-11-06T18:32:18.313Z,53.97
2022-11-06T18:34:44.886Z,53.97
2022-11-06T18:37:11.864Z,53.96
2022-11-06T18:39:39.699Z,53.97
2022-11-06T18:42:06.292Z,53.96
2022-11-06T18:44:35.023Z,53.95
2022-11-06T18:47:01.595Z,53.93
2022-11-06T18:49:28.149Z,53.96
2022-11-06T18:51:54.798Z,53.93
2022-11-06T18:54:21.407Z,53.93
2022-11-06T18:56:47.952Z,53.93
2022-11-06T18:59:16.313Z,53.92
2022-11-06T19:01:43.092Z,53.93
2022-11-06T19:04:10.823Z,53.92
2022-11-06T19:06:40.428Z,53.92
2022-11-06T19:09:08.197Z,53.93
2022-11-06T19:11:34.790Z,53.92
2022-11-06T19:14:01.384Z,53.93
2022-11-06T19:16:27.929Z,53.91
2022-11-06T19:21:28.267Z,53.93
2022-11-06T19:24:00.211Z,53.92
2022-11-06T19:26:31.438Z,53.91
2022-11-06T19:28:59.901Z,53.92
2022-11-06T19:31:29.424Z,53.94
2022-11-06T19:33:56.939Z,53.95
2022-11-06T19:36:25.315Z,53.92
2022-11-06T19:38:52.259Z,53.93
2022-11-06T19:41:19.080Z,53.95
2022-11-06T19:43:45.714Z,53.94
2022-11-06T19:46:12.290Z,53.94
2022-11-06T19:48:38.999Z,53.92
2022-11-06T19:51:12.268Z,53.93
2022-11-06T19:53:39.782Z,53.90
2022-11-06T19:56:08.293Z,53.93
2022-11-06T19:58:35.146Z,53.90
2022-11-06T20:01:13.178Z,53.92
2022-11-06T20:03:40.000Z,53.93
2022-11-06T20:06:08.163Z,53.94
2022-11-06T20:08:36.823Z,53.93
2022-11-06T20:11:15.971Z,53.93
2022-11-06T20:13:43.021Z,53.91
2022-11-06T20:16:17.403Z,53.90
2022-11-06T20:18:45.123Z,53.90
2022-11-06T20:21:11.988Z,53.91
2022-11-06T20:23:38.677Z,53.90
2022-11-06T20:26:05.461Z,53.90
2022-11-06T20:28:32.709Z,53.89
2022-11-06T20:30:59.270Z,53.88
2022-11-06T20:33:26.407Z,53.90
2022-11-06T20:35:52.954Z,53.89
2022-11-06T20:38:19.531Z,53.89
2022-11-06T20:40:46.082Z,53.88
2022-11-06T20:43:13.097Z,53.85
2022-11-06T20:45:39.937Z,53.85
2022-11-06T20:48:07.068Z,53.85
2022-11-06T20:50:34.050Z,53.85
2022-11-06T20:53:00.670Z,53.85
2022-11-06T20:55:27.284Z,53.84
2022-11-06T20:57:54.011Z,53.85
2022-11-06T21:00:20.764Z,53.84
2022-11-06T21:02:47.534Z,53.84
2022-11-06T21:05:17.085Z,53.85
2022-11-06T21:07:43.725Z,53.83
2022-11-06T21:10:12.011Z,53.83
2022-11-06T21:12:38.945Z,53.83
2022-11-06T21:15:08.263Z,53.83
2022-11-06T21:17:35.758Z,53.81
2022-11-06T21:20:02.338Z,53.83
2022-11-06T21:22:28.950Z,53.80
2022-11-06T21:24:55.745Z,53.78
2022-11-06T21:27:22.348Z,53.76
2022-11-06T21:29:48.959Z,53.76
2022-11-06T21:32:15.505Z,53.75
2022-11-06T21:34:42.184Z,53.75
2022-11-06T21:37:08.767Z,53.73
2022-11-06T21:39:36.711Z,53.74
2022-11-06T21:42:04.729Z,53.73
2022-11-06T21:44:31.330Z,53.72
2022-11-06T21:46:57.878Z,53.72
2022-11-06T21:49:24.442Z,53.73
2022-11-06T21:51:50.995Z,53.71
2022-11-06T21:54:36.258Z,53.72
2022-11-06T21:57:02.926Z,53.68
2022-11-06T21:59:29.974Z,53.70
2022-11-06T22:01:56.689Z,53.67
2022-11-06T22:04:23.491Z,53.68
2022-11-06T22:06:50.172Z,53.68
2022-11-06T22:09:21.958Z,53.68
2022-11-06T22:11:51.258Z,53.67
2022-11-06T22:14:17.839Z,53.64
2022-11-06T22:16:45.889Z,53.68
2022-11-06T22:19:13.534Z,53.66
2022-11-06T22:21:40.335Z,53.66
2022-11-06T22:24:07.490Z,53.66
2022-11-06T22:26:34.877Z,53.64
2022-11-06T22:29:04.118Z,53.61
2022-11-06T22:31:30.711Z,53.62
2022-11-06T22:33:57.345Z,53.60
2022-11-06T22:36:23.950Z,53.58
2022-11-06T22:38:50.533Z,53.59
2022-11-06T22:41:19.005Z,53.57
2022-11-06T22:43:48.400Z,53.57
2022-11-06T22:46:16.890Z,53.55
2022-11-06T22:48:43.742Z,53.55
2022-11-06T22:51:15.123Z,53.54
2022-11-06T22:53:41.788Z,53.54
2022-11-06T22:56:08.450Z,53.51
2022-11-06T22:58:35.084Z,53.50
2022-11-06T23:01:01.696Z,53.52
2022-11-06T23:03:29.006Z,53.49
2022-11-06T23:05:58.390Z,53.52
2022-11-06T23:08:27.986Z,53.50
2022-11-06T23:10:57.072Z,53.49
2022-11-06T23:13:23.755Z,53.50
2022-11-06T23:15:50.945Z,53.49
2022-11-06T23:18:17.676Z,53.50
2022-11-06T23:20:44.225Z,53.49
2022-11-06T23:23:10.999Z,53.50
2022-11-06T23:25:37.969Z,53.51
2022-11-06T23:28:04.763Z,53.51
2022-11-06T23:30:31.530Z,53.50
2022-11-06T23:32:58.124Z,53.50
2022-11-06T23:35:30.849Z,53.49
2022-11-06T23:37:58.607Z,53.49
2022-11-06T23:40:25.247Z,53.49
2022-11-06T23:42:54.612Z,53.48
2022-11-06T23:45:39.899Z,53.48
2022-11-06T23:48:12.395Z,53.48
2022-11-06T23:50:39.097Z,53.48
2022-11-06T23:53:05.649Z,53.48
2022-11-06T23:55:32.581Z,53.46
2022-11-06T23:58:01.685Z,53.47
